sensor_id;sensor_type;location;lat;lon;timestamp;temperature;humidity
2647;DHT22;1333;50.958;6.770;2023-02-11T00:00:33;8.00;99.90
2647;DHT22;1333;50.958;6.770;2023-02-11T00:02:58;8.00;99.90
2647;DHT22;1333;50.958;6.770;2023-02-11T00:05:24;8.10;99.90
2647;DHT22;1333;50.958;6.770;2023-02-11T00:07:49;8.20;99.90
2647;DHT22;1333;50.958;6.770;2023-02-11T00:10:15;8.10;99.90
2647;DHT22;1333;50.958;6.770;2023-02-11T00:12:40;8.10;99.90
2647;DHT22;1333;50.958;6.770;2023-02-11T00:15:07;8.00;99.90
2647;DHT22;1333;50.958;6.770;2023-02-11T00:17:33;8.00;99.90
2647;DHT22;1333;50.958;6.770;2023-02-11T00:19:59;8.10;99.90
2647;DHT22;1333;50.958;6.770;2023-02-11T00:22:24;8.00;99.90
2647;DHT22;1333;50.958;6.770;2023-02-11T00:24:50;7.90;99.90
2647;DHT22;1333;50.958;6.770;2023-02-11T00:27:15;7.80;99.90
2647;DHT22;1333;50.958;6.770;2023-02-11T00:29:41;7.80;99.90
2647;DHT22;1333;50.958;6.770;2023-02-11T00:32:06;7.80;99.90
2647;DHT22;1333;50.958;6.770;2023-02-11T00:34:34;7.70;99.90
2647;DHT22;1333;50.958;6.770;2023-02-11T00:37:00;7.70;99.90
2647;DHT22;1333;50.958;6.770;2023-02-11T00:39:25;7.60;99.90
2647;DHT22;1333;50.958;6.770;2023-02-11T00:41:51;7.50;99.90
2647;DHT22;1333;50.958;6.770;2023-02-11T00:44:16;7.50;99.90
2647;DHT22;1333;50.958;6.770;2023-02-11T00:46:42;7.50;99.90
2647;DHT22;1333;50.958;6.770;2023-02-11T00:49:07;7.50;99.90
2647;DHT22;1333;50.958;6.770;2023-02-11T00:51:33;7.40;99.90
2647;DHT22;1333;50.958;6.770;2023-02-11T00:53:59;7.40;99.90
2647;DHT22;1333;50.958;6.770;2023-02-11T00:56:24;7.40;99.90
2647;DHT22;1333;50.958;6.770;2023-02-11T00:58:50;7.30;99.90
2647;DHT22;1333;50.958;6.770;2023-02-11T01:01:15;7.10;99.90
2647;DHT22;1333;50.958;6.770;2023-02-11T01:03:41;7.00;99.90
2647;DHT22;1333;50.958;6.770;2023-02-11T01:06:08;6.90;99.90
2647;DHT22;1333;50.958;6.770;2023-02-11T01:08:34;6.90;99.90
2647;DHT22;1333;50.958;6.770;2023-02-11T01:11:02;6.80;99.90
2647;DHT22;1333;50.958;6.770;2023-02-11T01:13:29;6.80;99.90
2647;DHT22;1333;50.958;6.770;2023-02-11T01:15:55;6.80;99.90
2647;DHT22;1333;50.958;6.770;2023-02-11T01:18:21;6.80;99.90
2647;DHT22;1333;50.958;6.770;2023-02-11T01:20:46;6.80;99.90
2647;DHT22;1333;50.958;6.770;2023-02-11T01:23:12;6.70;99.90
2647;DHT22;1333;50.958;6.770;2023-02-11T01:25:37;6.70;99.90
2647;DHT22;1333;50.958;6.770;2023-02-11T01:28:03;6.60;99.90
2647;DHT22;1333;50.958;6.770;2023-02-11T01:30:29;6.60;99.90
2647;DHT22;1333;50.958;6.770;2023-02-11T01:32:55;6.60;99.90
2647;DHT22;1333;50.958;6.770;2023-02-11T01:35:20;6.70;99.90
2647;DHT22;1333;50.958;6.770;2023-02-11T01:37:46;6.60;99.90
2647;DHT22;1333;50.958;6.770;2023-02-11T01:40:14;6.50;99.90
2647;DHT22;1333;50.958;6.770;2023-02-11T01:42:40;6.50;99.90
2647;DHT22;1333;50.958;6.770;2023-02-11T01:48:26;6.70;99.90
2647;DHT22;1333;50.958;6.770;2023-02-11T01:50:58;6.80;99.90
2647;DHT22;1333;50.958;6.770;2023-02-11T01:53:26;6.90;99.90
2647;DHT22;1333;50.958;6.770;2023-02-11T01:56:10;7.00;99.90
2647;DHT22;1333;50.958;6.770;2023-02-11T01:59:01;7.00;99.90
2647;DHT22;1333;50.958;6.770;2023-02-11T02:01:28;7.20;99.90
2647;DHT22;1333;50.958;6.770;2023-02-11T02:03:56;7.20;99.90
2647;DHT22;1333;50.958;6.770;2023-02-11T02:06:34;7.20;99.90
2647;DHT22;1333;50.958;6.770;2023-02-11T02:09:21;7.20;99.90
2647;DHT22;1333;50.958;6.770;2023-02-11T02:11:48;7.30;99.90
2647;DHT22;1333;50.958;6.770;2023-02-11T02:14:14;7.40;99.90
2647;DHT22;1333;50.958;6.770;2023-02-11T02:16:39;7.40;99.90
2647;DHT22;1333;50.958;6.770;2023-02-11T02:33:01;7.10;99.90
2647;DHT22;1333;50.958;6.770;2023-02-11T02:35:51;7.10;99.90
2647;DHT22;1333;50.958;6.770;2023-02-11T02:38:29;7.10;99.90
2647;DHT22;1333;50.958;6.770;2023-02-11T02:41:16;7.10;99.90
2647;DHT22;1333;50.958;6.770;2023-02-11T02:43:46;7.10;99.90
2647;DHT22;1333;50.958;6.770;2023-02-11T02:46:18;7.00;99.90
2647;DHT22;1333;50.958;6.770;2023-02-11T02:48:45;6.80;99.90
2647;DHT22;1333;50.958;6.770;2023-02-11T02:54:43;6.80;99.90
2647;DHT22;1333;50.958;6.770;2023-02-11T03:00:31;6.50;99.90
2647;DHT22;1333;50.958;6.770;2023-02-11T03:03:27;6.40;99.90
2647;DHT22;1333;50.958;6.770;2023-02-11T03:08:50;6.20;99.90
2647;DHT22;1333;50.958;6.770;2023-02-11T03:11:18;6.10;99.90
2647;DHT22;1333;50.958;6.770;2023-02-11T03:13:45;6.00;99.90
2647;DHT22;1333;50.958;6.770;2023-02-11T03:16:15;6.00;99.90
2647;DHT22;1333;50.958;6.770;2023-02-11T03:21:43;6.00;99.90
2647;DHT22;1333;50.958;6.770;2023-02-11T03:24:33;6.10;99.90
2647;DHT22;1333;50.958;6.770;2023-02-11T03:27:14;6.20;99.90
2647;DHT22;1333;50.958;6.770;2023-02-11T03:33:19;6.40;99.90
2647;DHT22;1333;50.958;6.770;2023-02-11T03:36:02;6.60;99.90
2647;DHT22;1333;50.958;6.770;2023-02-11T03:38:32;6.60;99.90
2647;DHT22;1333;50.958;6.770;2023-02-11T03:41:00;6.60;99.90
2647;DHT22;1333;50.958;6.770;2023-02-11T03:43:33;6.60;99.90
2647;DHT22;1333;50.958;6.770;2023-02-11T03:46:01;6.60;99.90
2647;DHT22;1333;50.958;6.770;2023-02-11T03:48:32;6.60;99.90
2647;DHT22;1333;50.958;6.770;2023-02-11T03:51:00;6.70;99.90
2647;DHT22;1333;50.958;6.770;2023-02-11T03:53:26;6.60;99.90
2647;DHT22;1333;50.958;6.770;2023-02-11T03:55:54;6.50;99.90
2647;DHT22;1333;50.958;6.770;2023-02-11T03:58:21;6.50;99.90
2647;DHT22;1333;50.958;6.770;2023-02-11T04:00:47;6.50;99.90
2647;DHT22;1333;50.958;6.770;2023-02-11T04:03:12;6.50;99.90
2647;DHT22;1333;50.958;6.770;2023-02-11T04:05:38;6.60;99.90
2647;DHT22;1333;50.958;6.770;2023-02-11T04:08:04;6.70;99.90
2647;DHT22;1333;50.958;6.770;2023-02-11T04:10:30;6.60;99.90
2647;DHT22;1333;50.958;6.770;2023-02-11T04:12:56;6.70;99.90
2647;DHT22;1333;50.958;6.770;2023-02-11T04:15:22;6.70;99.90
2647;DHT22;1333;50.958;6.770;2023-02-11T04:17:48;6.80;99.90
2647;DHT22;1333;50.958;6.770;2023-02-11T04:20:13;6.70;99.90
2647;DHT22;1333;50.958;6.770;2023-02-11T04:22:39;6.70;99.90
2647;DHT22;1333;50.958;6.770;2023-02-11T04:25:05;6.80;99.90
2647;DHT22;1333;50.958;6.770;2023-02-11T04:27:31;6.70;99.90
2647;DHT22;1333;50.958;6.770;2023-02-11T04:29:57;6.70;99.90
2647;DHT22;1333;50.958;6.770;2023-02-11T04:32:22;6.60;99.90
2647;DHT22;1333;50.958;6.770;2023-02-11T04:34:48;6.60;99.90
2647;DHT22;1333;50.958;6.770;2023-02-11T04:37:14;6.70;99.90
2647;DHT22;1333;50.958;6.770;2023-02-11T04:39:39;6.70;99.90
2647;DHT22;1333;50.958;6.770;2023-02-11T04:42:05;6.70;99.90
2647;DHT22;1333;50.958;6.770;2023-02-11T04:44:31;6.70;99.90
2647;DHT22;1333;50.958;6.770;2023-02-11T04:46:56;6.80;99.90
2647;DHT22;1333;50.958;6.770;2023-02-11T04:49:22;6.80;99.90
2647;DHT22;1333;50.958;6.770;2023-02-11T04:51:48;6.80;99.90
2647;DHT22;1333;50.958;6.770;2023-02-11T04:54:13;6.80;99.90
2647;DHT22;1333;50.958;6.770;2023-02-11T04:56:39;6.90;99.90
2647;DHT22;1333;50.958;6.770;2023-02-11T04:59:05;6.80;99.90
2647;DHT22;1333;50.958;6.770;2023-02-11T05:01:31;6.80;99.90
2647;DHT22;1333;50.958;6.770;2023-02-11T05:03:56;6.80;99.90
2647;DHT22;1333;50.958;6.770;2023-02-11T05:06:22;7.00;99.90
2647;DHT22;1333;50.958;6.770;2023-02-11T05:08:47;6.90;99.90
2647;DHT22;1333;50.958;6.770;2023-02-11T05:11:18;6.90;99.90
2647;DHT22;1333;50.958;6.770;2023-02-11T05:13:45;7.00;99.90
2647;DHT22;1333;50.958;6.770;2023-02-11T05:16:12;6.90;99.90
2647;DHT22;1333;50.958;6.770;2023-02-11T05:18:39;7.00;99.90
2647;DHT22;1333;50.958;6.770;2023-02-11T05:21:13;7.00;99.90
2647;DHT22;1333;50.958;6.770;2023-02-11T05:23:39;7.10;99.90
2647;DHT22;1333;50.958;6.770;2023-02-11T05:26:05;7.10;99.90
2647;DHT22;1333;50.958;6.770;2023-02-11T05:28:31;7.10;99.90
2647;DHT22;1333;50.958;6.770;2023-02-11T05:30:57;7.00;99.90
2647;DHT22;1333;50.958;6.770;2023-02-11T05:33:22;7.00;99.90
2647;DHT22;1333;50.958;6.770;2023-02-11T05:35:48;7.00;99.90
2647;DHT22;1333;50.958;6.770;2023-02-11T05:38:14;7.00;99.90
2647;DHT22;1333;50.958;6.770;2023-02-11T05:40:40;6.90;99.90
2647;DHT22;1333;50.958;6.770;2023-02-11T05:43:06;6.90;99.90
2647;DHT22;1333;50.958;6.770;2023-02-11T05:45:32;6.80;99.90
2647;DHT22;1333;50.958;6.770;2023-02-11T05:47:58;6.80;99.90
2647;DHT22;1333;50.958;6.770;2023-02-11T05:50:24;6.70;99.90
2647;DHT22;1333;50.958;6.770;2023-02-11T05:52:49;6.80;99.90
2647;DHT22;1333;50.958;6.770;2023-02-11T05:55:15;6.70;99.90
2647;DHT22;1333;50.958;6.770;2023-02-11T05:57:40;6.80;99.90
2647;DHT22;1333;50.958;6.770;2023-02-11T06:00:06;6.80;99.90
2647;DHT22;1333;50.958;6.770;2023-02-11T06:02:32;6.80;99.90
2647;DHT22;1333;50.958;6.770;2023-02-11T06:04:58;6.90;99.90
2647;DHT22;1333;50.958;6.770;2023-02-11T06:07:24;6.90;99.90
2647;DHT22;1333;50.958;6.770;2023-02-11T06:09:49;6.90;99.90
2647;DHT22;1333;50.958;6.770;2023-02-11T06:12:15;7.00;99.90
2647;DHT22;1333;50.958;6.770;2023-02-11T06:14:40;7.10;99.90
2647;DHT22;1333;50.958;6.770;2023-02-11T06:17:06;7.20;99.90
2647;DHT22;1333;50.958;6.770;2023-02-11T06:19:32;7.20;99.90
2647;DHT22;1333;50.958;6.770;2023-02-11T06:21:58;7.20;99.90
2647;DHT22;1333;50.958;6.770;2023-02-11T06:24:24;7.20;99.90
2647;DHT22;1333;50.958;6.770;2023-02-11T06:26:49;7.30;99.90
2647;DHT22;1333;50.958;6.770;2023-02-11T06:29:15;7.20;99.90
2647;DHT22;1333;50.958;6.770;2023-02-11T06:31:40;7.10;99.90
2647;DHT22;1333;50.958;6.770;2023-02-11T06:34:07;7.10;99.90
2647;DHT22;1333;50.958;6.770;2023-02-11T06:36:33;7.20;99.90
2647;DHT22;1333;50.958;6.770;2023-02-11T06:38:59;7.10;99.90
2647;DHT22;1333;50.958;6.770;2023-02-11T06:41:24;7.20;99.90
2647;DHT22;1333;50.958;6.770;2023-02-11T06:43:51;7.10;99.90
2647;DHT22;1333;50.958;6.770;2023-02-11T06:46:17;7.00;99.90
2647;DHT22;1333;50.958;6.770;2023-02-11T06:48:42;6.90;99.90
2647;DHT22;1333;50.958;6.770;2023-02-11T06:51:10;6.90;99.90
2647;DHT22;1333;50.958;6.770;2023-02-11T06:53:39;6.80;99.90
2647;DHT22;1333;50.958;6.770;2023-02-11T06:56:07;7.00;99.90
2647;DHT22;1333;50.958;6.770;2023-02-11T06:58:33;7.00;99.90
2647;DHT22;1333;50.958;6.770;2023-02-11T07:00:59;7.10;99.90
2647;DHT22;1333;50.958;6.770;2023-02-11T07:03:25;7.10;99.90
2647;DHT22;1333;50.958;6.770;2023-02-11T07:05:50;7.20;99.90
2647;DHT22;1333;50.958;6.770;2023-02-11T07:08:16;7.10;99.90
2647;DHT22;1333;50.958;6.770;2023-02-11T07:10:41;7.20;99.90
2647;DHT22;1333;50.958;6.770;2023-02-11T07:13:07;7.30;99.90
2647;DHT22;1333;50.958;6.770;2023-02-11T07:15:32;7.40;99.90
2647;DHT22;1333;50.958;6.770;2023-02-11T07:17:58;7.40;99.90
2647;DHT22;1333;50.958;6.770;2023-02-11T07:20:24;7.50;99.90
2647;DHT22;1333;50.958;6.770;2023-02-11T07:22:50;7.60;99.90
2647;DHT22;1333;50.958;6.770;2023-02-11T07:25:15;7.60;99.90
2647;DHT22;1333;50.958;6.770;2023-02-11T07:27:41;7.50;99.90
2647;DHT22;1333;50.958;6.770;2023-02-11T07:30:07;7.50;99.90
2647;DHT22;1333;50.958;6.770;2023-02-11T07:32:33;7.60;99.90
2647;DHT22;1333;50.958;6.770;2023-02-11T07:34:58;7.70;99.90
2647;DHT22;1333;50.958;6.770;2023-02-11T07:37:24;7.70;99.90
2647;DHT22;1333;50.958;6.770;2023-02-11T07:39:49;7.70;99.90
2647;DHT22;1333;50.958;6.770;2023-02-11T07:42:15;7.70;99.90
2647;DHT22;1333;50.958;6.770;2023-02-11T07:44:40;7.50;99.90
2647;DHT22;1333;50.958;6.770;2023-02-11T07:47:06;7.50;99.90
2647;DHT22;1333;50.958;6.770;2023-02-11T07:49:31;7.40;99.90
2647;DHT22;1333;50.958;6.770;2023-02-11T07:51:57;7.50;99.90
2647;DHT22;1333;50.958;6.770;2023-02-11T07:54:22;7.30;99.90
2647;DHT22;1333;50.958;6.770;2023-02-11T07:56:48;7.30;99.90
2647;DHT22;1333;50.958;6.770;2023-02-11T07:59:13;7.40;99.90
2647;DHT22;1333;50.958;6.770;2023-02-11T08:01:39;7.40;99.90
2647;DHT22;1333;50.958;6.770;2023-02-11T08:04:04;7.40;99.90
2647;DHT22;1333;50.958;6.770;2023-02-11T08:06:31;7.40;99.90
2647;DHT22;1333;50.958;6.770;2023-02-11T08:09:02;7.50;99.90
2647;DHT22;1333;50.958;6.770;2023-02-11T08:11:28;7.50;99.90
2647;DHT22;1333;50.958;6.770;2023-02-11T08:13:55;7.50;99.90
2647;DHT22;1333;50.958;6.770;2023-02-11T08:16:22;7.40;99.90
2647;DHT22;1333;50.958;6.770;2023-02-11T08:18:48;7.40;99.90
2647;DHT22;1333;50.958;6.770;2023-02-11T08:21:13;7.50;99.90
2647;DHT22;1333;50.958;6.770;2023-02-11T08:23:41;7.40;99.90
2647;DHT22;1333;50.958;6.770;2023-02-11T08:26:09;7.40;99.90
2647;DHT22;1333;50.958;6.770;2023-02-11T08:28:39;7.40;99.90
2647;DHT22;1333;50.958;6.770;2023-02-11T08:31:06;7.40;99.90
2647;DHT22;1333;50.958;6.770;2023-02-11T08:33:33;7.60;99.90
2647;DHT22;1333;50.958;6.770;2023-02-11T08:35:59;7.50;99.90
2647;DHT22;1333;50.958;6.770;2023-02-11T08:38:24;7.50;99.90
2647;DHT22;1333;50.958;6.770;2023-02-11T08:40:50;7.60;99.90
2647;DHT22;1333;50.958;6.770;2023-02-11T08:43:16;7.70;99.90
2647;DHT22;1333;50.958;6.770;2023-02-11T08:45:41;7.70;99.90
2647;DHT22;1333;50.958;6.770;2023-02-11T08:48:07;7.70;99.90
2647;DHT22;1333;50.958;6.770;2023-02-11T08:50:32;7.70;99.90
2647;DHT22;1333;50.958;6.770;2023-02-11T08:52:58;7.60;99.90
2647;DHT22;1333;50.958;6.770;2023-02-11T08:55:24;7.70;99.90
2647;DHT22;1333;50.958;6.770;2023-02-11T08:57:49;7.70;99.90
2647;DHT22;1333;50.958;6.770;2023-02-11T09:00:16;7.70;99.90
2647;DHT22;1333;50.958;6.770;2023-02-11T09:02:41;7.70;99.90
2647;DHT22;1333;50.958;6.770;2023-02-11T09:05:07;7.70;99.90
2647;DHT22;1333;50.958;6.770;2023-02-11T09:07:32;7.80;99.90
2647;DHT22;1333;50.958;6.770;2023-02-11T09:09:58;7.70;99.90
2647;DHT22;1333;50.958;6.770;2023-02-11T09:12:23;7.60;99.90
2647;DHT22;1333;50.958;6.770;2023-02-11T09:14:49;7.60;99.90
2647;DHT22;1333;50.958;6.770;2023-02-11T09:17:14;7.50;99.90
2647;DHT22;1333;50.958;6.770;2023-02-11T09:19:40;7.60;99.90
2647;DHT22;1333;50.958;6.770;2023-02-11T09:22:05;7.70;99.90
2647;DHT22;1333;50.958;6.770;2023-02-11T09:24:31;7.80;99.90
2647;DHT22;1333;50.958;6.770;2023-02-11T09:26:56;8.00;99.90
2647;DHT22;1333;50.958;6.770;2023-02-11T09:29:22;7.90;99.90
2647;DHT22;1333;50.958;6.770;2023-02-11T09:31:48;7.90;99.90
2647;DHT22;1333;50.958;6.770;2023-02-11T09:34:14;7.90;99.90
2647;DHT22;1333;50.958;6.770;2023-02-11T09:36:40;7.80;99.90
2647;DHT22;1333;50.958;6.770;2023-02-11T09:39:10;7.90;99.90
2647;DHT22;1333;50.958;6.770;2023-02-11T09:44:34;8.00;99.90
2647;DHT22;1333;50.958;6.770;2023-02-11T09:47:03;8.00;99.90
2647;DHT22;1333;50.958;6.770;2023-02-11T09:49:49;8.10;99.90
2647;DHT22;1333;50.958;6.770;2023-02-11T09:55:22;8.10;99.90
2647;DHT22;1333;50.958;6.770;2023-02-11T09:57:49;8.20;99.90
2647;DHT22;1333;50.958;6.770;2023-02-11T10:00:20;8.20;99.90
2647;DHT22;1333;50.958;6.770;2023-02-11T10:03:07;8.40;99.90
2647;DHT22;1333;50.958;6.770;2023-02-11T10:08:15;8.60;99.90
2647;DHT22;1333;50.958;6.770;2023-02-11T10:10:51;8.70;99.90
2647;DHT22;1333;50.958;6.770;2023-02-11T10:13:50;8.80;99.90
2647;DHT22;1333;50.958;6.770;2023-02-11T10:19:15;8.70;99.90
2647;DHT22;1333;50.958;6.770;2023-02-11T10:24:13;8.80;99.90
2647;DHT22;1333;50.958;6.770;2023-02-11T10:26:40;9.00;99.90
2647;DHT22;1333;50.958;6.770;2023-02-11T10:29:34;9.00;99.90
2647;DHT22;1333;50.958;6.770;2023-02-11T10:32:00;9.10;99.90
2647;DHT22;1333;50.958;6.770;2023-02-11T10:34:28;9.10;99.90
2647;DHT22;1333;50.958;6.770;2023-02-11T10:36:53;9.30;99.90
2647;DHT22;1333;50.958;6.770;2023-02-11T10:39:22;9.30;99.90
2647;DHT22;1333;50.958;6.770;2023-02-11T10:42:07;9.40;99.90
2647;DHT22;1333;50.958;6.770;2023-02-11T10:44:37;9.60;99.90
2647;DHT22;1333;50.958;6.770;2023-02-11T10:47:11;9.60;99.90
2647;DHT22;1333;50.958;6.770;2023-02-11T10:49:42;9.50;99.90
2647;DHT22;1333;50.958;6.770;2023-02-11T10:54:36;9.50;99.90
2647;DHT22;1333;50.958;6.770;2023-02-11T10:57:02;9.40;99.90
2647;DHT22;1333;50.958;6.770;2023-02-11T10:59:30;9.50;99.90
2647;DHT22;1333;50.958;6.770;2023-02-11T11:02:01;9.50;99.90
2647;DHT22;1333;50.958;6.770;2023-02-11T11:04:39;9.40;99.90
2647;DHT22;1333;50.958;6.770;2023-02-11T11:07:22;9.40;99.90
2647;DHT22;1333;50.958;6.770;2023-02-11T11:10:02;9.60;99.90
2647;DHT22;1333;50.958;6.770;2023-02-11T11:14:58;9.60;99.90
2647;DHT22;1333;50.958;6.770;2023-02-11T11:17:25;9.50;99.90
2647;DHT22;1333;50.958;6.770;2023-02-11T11:22:48;9.50;99.90
2647;DHT22;1333;50.958;6.770;2023-02-11T11:25:28;9.40;99.90
2647;DHT22;1333;50.958;6.770;2023-02-11T11:27:59;9.50;99.90
2647;DHT22;1333;50.958;6.770;2023-02-11T11:30:32;9.60;99.90
2647;DHT22;1333;50.958;6.770;2023-02-11T11:33:03;9.60;99.90
2647;DHT22;1333;50.958;6.770;2023-02-11T11:35:30;9.50;99.90
2647;DHT22;1333;50.958;6.770;2023-02-11T11:38:02;9.60;99.90
2647;DHT22;1333;50.958;6.770;2023-02-11T11:40:33;9.50;99.90
2647;DHT22;1333;50.958;6.770;2023-02-11T11:45:36;9.50;99.90
2647;DHT22;1333;50.958;6.770;2023-02-11T11:48:30;9.60;99.90
2647;DHT22;1333;50.958;6.770;2023-02-11T11:51:05;9.40;99.90
2647;DHT22;1333;50.958;6.770;2023-02-11T11:53:43;9.40;99.90
2647;DHT22;1333;50.958;6.770;2023-02-11T11:56:34;9.40;99.90
2647;DHT22;1333;50.958;6.770;2023-02-11T11:59:09;9.40;99.90
2647;DHT22;1333;50.958;6.770;2023-02-11T12:04:35;9.40;99.90
2647;DHT22;1333;50.958;6.770;2023-02-11T12:10:36;9.50;99.90
2647;DHT22;1333;50.958;6.770;2023-02-11T12:12:59;9.60;99.90
2647;DHT22;1333;50.958;6.770;2023-02-11T12:18:16;9.70;99.90
2647;DHT22;1333;50.958;6.770;2023-02-11T12:32:15;10.00;99.90
2647;DHT22;1333;50.958;6.770;2023-02-11T12:35:21;10.00;99.90
2647;DHT22;1333;50.958;6.770;2023-02-11T12:43:36;10.10;99.90
2647;DHT22;1333;50.958;6.770;2023-02-11T12:46:32;10.10;99.90
2647;DHT22;1333;50.958;6.770;2023-02-11T12:51:58;10.10;99.90
2647;DHT22;1333;50.958;6.770;2023-02-11T12:54:39;10.10;99.90
2647;DHT22;1333;50.958;6.770;2023-02-11T12:59:59;10.00;99.90
2647;DHT22;1333;50.958;6.770;2023-02-11T13:02:33;9.90;99.90
2647;DHT22;1333;50.958;6.770;2023-02-11T13:05:04;10.00;99.90
2647;DHT22;1333;50.958;6.770;2023-02-11T13:07:38;9.90;99.90
2647;DHT22;1333;50.958;6.770;2023-02-11T13:10:30;10.00;99.90
2647;DHT22;1333;50.958;6.770;2023-02-11T13:12:58;10.10;99.90
2647;DHT22;1333;50.958;6.770;2023-02-11T13:15:45;10.10;99.90
2647;DHT22;1333;50.958;6.770;2023-02-11T13:18:13;10.00;99.90
2647;DHT22;1333;50.958;6.770;2023-02-11T13:23:37;10.10;99.90
2647;DHT22;1333;50.958;6.770;2023-02-11T13:26:11;10.10;99.90
2647;DHT22;1333;50.958;6.770;2023-02-11T13:28:44;10.00;99.90
2647;DHT22;1333;50.958;6.770;2023-02-11T13:31:13;10.00;99.90
2647;DHT22;1333;50.958;6.770;2023-02-11T13:33:41;9.90;99.90
2647;DHT22;1333;50.958;6.770;2023-02-11T13:38:34;9.70;99.90
2647;DHT22;1333;50.958;6.770;2023-02-11T13:41:18;9.70;99.90
2647;DHT22;1333;50.958;6.770;2023-02-11T13:43:59;9.70;99.90
2647;DHT22;1333;50.958;6.770;2023-02-11T13:46:26;9.70;99.90
2647;DHT22;1333;50.958;6.770;2023-02-11T13:48:53;9.70;99.90
2647;DHT22;1333;50.958;6.770;2023-02-11T13:51:39;9.50;99.90
2647;DHT22;1333;50.958;6.770;2023-02-11T13:54:07;9.60;99.90
2647;DHT22;1333;50.958;6.770;2023-02-11T13:56:39;9.60;99.90
2647;DHT22;1333;50.958;6.770;2023-02-11T14:11:47;9.70;99.90
2647;DHT22;1333;50.958;6.770;2023-02-11T14:16:12;9.90;99.90
2647;DHT22;1333;50.958;6.770;2023-02-11T14:26:49;10.10;99.90
2647;DHT22;1333;50.958;6.770;2023-02-11T14:29:17;10.20;99.90
2647;DHT22;1333;50.958;6.770;2023-02-11T14:40:05;10.00;99.90
2647;DHT22;1333;50.958;6.770;2023-02-11T14:42:35;10.00;99.90
2647;DHT22;1333;50.958;6.770;2023-02-11T14:45:07;9.80;99.90
2647;DHT22;1333;50.958;6.770;2023-02-11T14:47:48;10.00;99.90
2647;DHT22;1333;50.958;6.770;2023-02-11T14:50:27;10.10;99.90
2647;DHT22;1333;50.958;6.770;2023-02-11T14:52:58;10.20;99.90
2647;DHT22;1333;50.958;6.770;2023-02-11T14:55:31;10.30;99.90
2647;DHT22;1333;50.958;6.770;2023-02-11T14:58:28;10.40;99.90
2647;DHT22;1333;50.958;6.770;2023-02-11T15:01:05;10.40;99.90
2647;DHT22;1333;50.958;6.770;2023-02-11T15:03:48;10.40;99.90
2647;DHT22;1333;50.958;6.770;2023-02-11T15:06:41;10.50;99.90
2647;DHT22;1333;50.958;6.770;2023-02-11T15:09:18;10.40;99.90
2647;DHT22;1333;50.958;6.770;2023-02-11T15:11:47;10.50;99.90
2647;DHT22;1333;50.958;6.770;2023-02-11T15:14:24;10.40;99.90
2647;DHT22;1333;50.958;6.770;2023-02-11T15:16:52;10.40;99.90
2647;DHT22;1333;50.958;6.770;2023-02-11T15:19:30;10.20;99.90
2647;DHT22;1333;50.958;6.770;2023-02-11T15:21:57;10.10;99.90
2647;DHT22;1333;50.958;6.770;2023-02-11T15:24:27;10.10;99.90
2647;DHT22;1333;50.958;6.770;2023-02-11T15:26:58;10.10;99.90
2647;DHT22;1333;50.958;6.770;2023-02-11T15:29:33;9.90;99.90
2647;DHT22;1333;50.958;6.770;2023-02-11T15:34:32;9.90;99.90
2647;DHT22;1333;50.958;6.770;2023-02-11T15:36:58;10.00;99.90
2647;DHT22;1333;50.958;6.770;2023-02-11T15:39:38;10.00;99.90
2647;DHT22;1333;50.958;6.770;2023-02-11T15:42:25;10.10;99.90
2647;DHT22;1333;50.958;6.770;2023-02-11T15:47:40;10.10;99.90
2647;DHT22;1333;50.958;6.770;2023-02-11T15:50:19;9.90;99.90
2647;DHT22;1333;50.958;6.770;2023-02-11T15:52:45;9.90;99.90
2647;DHT22;1333;50.958;6.770;2023-02-11T15:55:13;9.70;99.90
2647;DHT22;1333;50.958;6.770;2023-02-11T15:57:53;9.70;99.90
2647;DHT22;1333;50.958;6.770;2023-02-11T16:00:22;9.70;99.90
2647;DHT22;1333;50.958;6.770;2023-02-11T16:02:48;9.70;99.90
2647;DHT22;1333;50.958;6.770;2023-02-11T16:07:54;9.40;99.90
2647;DHT22;1333;50.958;6.770;2023-02-11T16:10:30;9.40;99.90
2647;DHT22;1333;50.958;6.770;2023-02-11T16:18:00;9.10;99.90
2647;DHT22;1333;50.958;6.770;2023-02-11T16:20:26;9.10;99.90
2647;DHT22;1333;50.958;6.770;2023-02-11T16:22:52;9.00;99.90
2647;DHT22;1333;50.958;6.770;2023-02-11T16:25:21;9.00;99.90
2647;DHT22;1333;50.958;6.770;2023-02-11T16:27:50;9.00;99.90
2647;DHT22;1333;50.958;6.770;2023-02-11T16:30:37;9.00;99.90
2647;DHT22;1333;50.958;6.770;2023-02-11T16:33:03;8.90;99.90
2647;DHT22;1333;50.958;6.770;2023-02-11T16:35:30;9.00;99.90
2647;DHT22;1333;50.958;6.770;2023-02-11T16:37:55;9.00;99.90
2647;DHT22;1333;50.958;6.770;2023-02-11T16:40:21;9.00;99.90
2647;DHT22;1333;50.958;6.770;2023-02-11T16:42:50;9.10;99.90
2647;DHT22;1333;50.958;6.770;2023-02-11T16:45:17;9.10;99.90
2647;DHT22;1333;50.958;6.770;2023-02-11T16:47:43;9.10;99.90
2647;DHT22;1333;50.958;6.770;2023-02-11T16:50:11;9.10;99.90
2647;DHT22;1333;50.958;6.770;2023-02-11T16:52:43;9.20;99.90
2647;DHT22;1333;50.958;6.770;2023-02-11T16:55:11;9.20;99.90
2647;DHT22;1333;50.958;6.770;2023-02-11T16:57:36;9.20;99.90
2647;DHT22;1333;50.958;6.770;2023-02-11T17:00:04;9.20;99.90
2647;DHT22;1333;50.958;6.770;2023-02-11T17:02:33;9.20;99.90
2647;DHT22;1333;50.958;6.770;2023-02-11T17:05:01;9.30;99.90
2647;DHT22;1333;50.958;6.770;2023-02-11T17:07:28;9.30;99.90
2647;DHT22;1333;50.958;6.770;2023-02-11T17:09:54;9.30;99.90
2647;DHT22;1333;50.958;6.770;2023-02-11T17:12:20;9.30;99.90
2647;DHT22;1333;50.958;6.770;2023-02-11T17:14:46;9.30;99.90
2647;DHT22;1333;50.958;6.770;2023-02-11T17:17:12;9.30;99.90
2647;DHT22;1333;50.958;6.770;2023-02-11T17:19:38;9.30;99.90
2647;DHT22;1333;50.958;6.770;2023-02-11T17:22:03;9.30;99.90
2647;DHT22;1333;50.958;6.770;2023-02-11T17:24:30;9.30;99.90
2647;DHT22;1333;50.958;6.770;2023-02-11T17:26:55;9.30;99.90
2647;DHT22;1333;50.958;6.770;2023-02-11T17:29:23;9.30;99.90
2647;DHT22;1333;50.958;6.770;2023-02-11T17:31:49;9.30;99.90
2647;DHT22;1333;50.958;6.770;2023-02-11T17:34:17;9.30;99.90
2647;DHT22;1333;50.958;6.770;2023-02-11T17:36:42;9.20;99.90
2647;DHT22;1333;50.958;6.770;2023-02-11T17:39:08;9.10;99.90
2647;DHT22;1333;50.958;6.770;2023-02-11T17:41:36;9.20;99.90
2647;DHT22;1333;50.958;6.770;2023-02-11T17:44:02;9.20;99.90
2647;DHT22;1333;50.958;6.770;2023-02-11T17:46:27;9.10;99.90
2647;DHT22;1333;50.958;6.770;2023-02-11T17:48:54;9.10;99.90
2647;DHT22;1333;50.958;6.770;2023-02-11T17:51:31;9.00;99.90
2647;DHT22;1333;50.958;6.770;2023-02-11T17:53:59;9.00;99.90
2647;DHT22;1333;50.958;6.770;2023-02-11T17:56:25;9.00;99.90
2647;DHT22;1333;50.958;6.770;2023-02-11T17:58:51;9.00;99.90
2647;DHT22;1333;50.958;6.770;2023-02-11T18:01:18;9.00;99.90
2647;DHT22;1333;50.958;6.770;2023-02-11T18:03:43;8.90;99.90
2647;DHT22;1333;50.958;6.770;2023-02-11T18:06:10;8.80;99.90
2647;DHT22;1333;50.958;6.770;2023-02-11T18:08:36;8.90;99.90
2647;DHT22;1333;50.958;6.770;2023-02-11T18:11:02;8.80;99.90
2647;DHT22;1333;50.958;6.770;2023-02-11T18:13:28;8.80;99.90
2647;DHT22;1333;50.958;6.770;2023-02-11T18:15:54;8.70;99.90
2647;DHT22;1333;50.958;6.770;2023-02-11T18:18:25;8.80;99.90
2647;DHT22;1333;50.958;6.770;2023-02-11T18:20:58;8.80;99.90
2647;DHT22;1333;50.958;6.770;2023-02-11T18:23:24;8.80;99.90
2647;DHT22;1333;50.958;6.770;2023-02-11T18:25:50;8.70;99.90
2647;DHT22;1333;50.958;6.770;2023-02-11T18:28:15;8.70;99.90
2647;DHT22;1333;50.958;6.770;2023-02-11T18:30:41;8.60;99.90
2647;DHT22;1333;50.958;6.770;2023-02-11T18:33:06;8.60;99.90
2647;DHT22;1333;50.958;6.770;2023-02-11T18:35:37;8.60;99.90
2647;DHT22;1333;50.958;6.770;2023-02-11T18:38:03;8.70;99.90
2647;DHT22;1333;50.958;6.770;2023-02-11T18:40:29;8.80;99.90
2647;DHT22;1333;50.958;6.770;2023-02-11T18:42:54;8.80;99.90
2647;DHT22;1333;50.958;6.770;2023-02-11T18:45:20;8.70;99.90
2647;DHT22;1333;50.958;6.770;2023-02-11T18:47:45;8.70;99.90